Sacramento, California
Traffic Map
Current Weather Conditions
Sacramento, California
Clear
Clear
25°
Feels Like: 25°
Wind Chill: 25° Ceiling: Unl
Heat Index: 25° Visibility: 10mi
Dew Point: Wind: 8mph
Humidity: 20% Direction: 320° (NW)
Pressure: 29.83in Gusts: 0mph
Raw Report DataKSAC 290153Z AUTO 32007KT 10SM CLR 25/01 A2983 RMK AO2 SLP102 T02500006 TSNO
Traffic Incident Summary
Active as of:
Severity:
Category:
InformationThere was an issue retrieving the traffic information for this location. Please try a different location or try again shortly.
Advertisements
Track Severe Weather on mobile